createdAt,value
2024-01-28T00:00:00.431Z,100.00
2024-01-28T00:02:28.220Z,100.00
2024-01-28T00:04:55.990Z,100.00
2024-01-28T00:07:23.541Z,100.00
2024-01-28T00:09:51.134Z,100.00
2024-01-28T00:12:18.800Z,100.00
2024-01-28T00:14:46.537Z,100.00
2024-01-28T00:17:14.390Z,100.00
2024-01-28T00:19:42.187Z,100.00
2024-01-28T00:22:09.807Z,100.00
2024-01-28T00:24:37.391Z,100.00
2024-01-28T00:27:05.144Z,100.00
2024-01-28T00:29:32.757Z,100.00
2024-01-28T00:32:03.215Z,100.00
2024-01-28T00:34:31.042Z,100.00
2024-01-28T00:36:58.758Z,100.00
2024-01-28T00:39:26.498Z,100.00
2024-01-28T00:41:54.087Z,100.00
2024-01-28T00:44:21.648Z,100.00
2024-01-28T00:46:49.206Z,100.00
2024-01-28T00:49:17.045Z,100.00
2024-01-28T00:51:44.821Z,100.00
2024-01-28T00:54:12.423Z,100.00
2024-01-28T00:56:39.993Z,100.00
2024-01-28T00:59:07.552Z,100.00
2024-01-28T01:01:35.075Z,100.00
2024-01-28T01:04:02.681Z,100.00
2024-01-28T01:06:30.415Z,100.00
2024-01-28T01:08:58.023Z,100.00
2024-01-28T01:11:25.861Z,100.00
2024-01-28T01:13:54.800Z,100.00
2024-01-28T01:16:22.461Z,100.00
2024-01-28T01:18:50.182Z,100.00
2024-01-28T01:21:18.095Z,100.00
2024-01-28T01:23:45.783Z,100.00
2024-01-28T01:26:14.571Z,100.00
2024-01-28T01:28:42.886Z,100.00
2024-01-28T01:31:10.422Z,100.00
2024-01-28T01:33:38.180Z,100.00
2024-01-28T01:36:06.496Z,100.00
2024-01-28T01:38:34.107Z,100.00
2024-01-28T01:41:01.694Z,100.00
2024-01-28T01:43:29.930Z,100.00
2024-01-28T01:45:57.483Z,100.00
2024-01-28T01:48:25.581Z,100.00
2024-01-28T01:50:53.275Z,100.00
2024-01-28T01:53:21.024Z,100.00
2024-01-28T01:55:49.594Z,100.00
2024-01-28T01:58:17.804Z,100.00
2024-01-28T02:00:45.510Z,100.00
2024-01-28T02:03:13.570Z,100.00
2024-01-28T02:05:41.306Z,100.00
2024-01-28T02:08:08.909Z,100.00
2024-01-28T02:10:36.559Z,100.00
2024-01-28T02:13:04.187Z,100.00
2024-01-28T02:15:36.879Z,100.00
2024-01-28T02:18:04.771Z,100.00
2024-01-28T02:20:32.462Z,100.00
2024-01-28T02:23:00.071Z,100.00
2024-01-28T02:25:27.620Z,100.00
2024-01-28T02:27:55.183Z,100.00
2024-01-28T02:30:23.575Z,100.00
2024-01-28T02:32:52.414Z,100.00
2024-01-28T02:35:20.203Z,100.00
2024-01-28T02:37:49.281Z,100.00
2024-01-28T02:40:16.926Z,100.00
2024-01-28T02:42:45.010Z,100.00
2024-01-28T02:45:12.571Z,100.00
2024-01-28T02:47:40.294Z,100.00
2024-01-28T02:50:08.720Z,100.00
2024-01-28T02:52:36.350Z,100.00
2024-01-28T02:55:04.065Z,100.00
2024-01-28T02:57:31.861Z,100.00
2024-01-28T03:00:00.354Z,100.00
2024-01-28T03:02:27.956Z,100.00
2024-01-28T03:04:55.518Z,100.00
2024-01-28T03:07:23.324Z,100.00
2024-01-28T03:09:51.056Z,100.00
2024-01-28T03:12:18.593Z,100.00
2024-01-28T03:14:46.529Z,100.00
2024-01-28T03:17:14.065Z,100.00
2024-01-28T03:19:41.601Z,100.00
2024-01-28T03:22:09.186Z,100.00
2024-01-28T03:24:36.814Z,100.00
2024-01-28T03:27:04.843Z,100.00
2024-01-28T03:29:32.574Z,100.00
2024-01-28T03:32:00.170Z,100.00
2024-01-28T03:34:27.813Z,100.00
2024-01-28T03:36:55.464Z,100.00
2024-01-28T03:39:23.040Z,100.00
2024-01-28T03:41:50.949Z,100.00
2024-01-28T03:44:23.957Z,100.00
2024-01-28T03:46:51.847Z,100.00
2024-01-28T03:49:19.537Z,100.00
2024-01-28T03:51:47.998Z,100.00
2024-01-28T03:54:15.603Z,100.00
2024-01-28T03:56:43.209Z,100.00
2024-01-28T03:59:10.813Z,100.00
2024-01-28T04:01:38.562Z,100.00
2024-01-28T04:04:06.294Z,100.00
2024-01-28T04:06:34.768Z,100.00
2024-01-28T04:09:02.543Z,100.00
2024-01-28T04:11:30.113Z,100.00
2024-01-28T04:13:57.785Z,100.00
2024-01-28T04:16:25.405Z,100.00
2024-01-28T04:18:53.737Z,100.00
2024-01-28T04:21:21.793Z,100.00
2024-01-28T04:23:49.472Z,100.00
2024-01-28T04:26:17.186Z,100.00
2024-01-28T04:28:45.067Z,100.00
2024-01-28T04:31:14.358Z,100.00
2024-01-28T04:33:43.314Z,100.00
2024-01-28T04:36:11.700Z,100.00
2024-01-28T04:38:39.447Z,100.00
2024-01-28T04:41:07.185Z,100.00
2024-01-28T04:43:34.924Z,100.00
2024-01-28T04:46:02.675Z,100.00
2024-01-28T04:48:30.514Z,100.00
2024-01-28T04:50:58.368Z,100.00
2024-01-28T04:53:26.078Z,100.00
2024-01-28T04:55:53.776Z,100.00
2024-01-28T04:58:21.465Z,100.00
2024-01-28T05:00:49.380Z,100.00
2024-01-28T05:03:18.214Z,100.00
2024-01-28T05:05:46.056Z,100.00
2024-01-28T05:08:13.811Z,100.00
2024-01-28T05:10:41.443Z,100.00
2024-01-28T05:13:09.076Z,100.00
2024-01-28T05:15:37.164Z,100.00
2024-01-28T05:18:05.104Z,100.00
2024-01-28T05:20:32.806Z,100.00
2024-01-28T05:23:01.171Z,100.00
2024-01-28T05:25:29.528Z,100.00
2024-01-28T05:27:57.295Z,100.00
2024-01-28T05:30:24.987Z,100.00
2024-01-28T05:32:52.584Z,100.00
2024-01-28T05:35:20.268Z,100.00
2024-01-28T05:37:47.794Z,100.00
2024-01-28T05:40:16.419Z,100.00
2024-01-28T05:42:44.237Z,100.00
2024-01-28T05:45:11.905Z,100.00
2024-01-28T05:47:39.485Z,100.00
2024-01-28T05:50:07.073Z,100.00
2024-01-28T05:52:34.679Z,100.00
2024-01-28T05:55:02.260Z,100.00
2024-01-28T05:57:30.522Z,100.00
2024-01-28T05:59:58.127Z,100.00
2024-01-28T06:02:25.742Z,100.00
2024-01-28T06:04:53.362Z,100.00
2024-01-28T06:07:20.969Z,100.00
2024-01-28T06:09:48.631Z,100.00
2024-01-28T06:12:17.512Z,100.00
2024-01-28T06:14:45.211Z,100.00
2024-01-28T06:17:12.735Z,100.00
2024-01-28T06:19:40.279Z,100.00
2024-01-28T06:22:07.864Z,100.00
2024-01-28T06:24:36.778Z,100.00
2024-01-28T06:27:04.825Z,100.00
2024-01-28T06:29:32.423Z,100.00
2024-01-28T06:31:59.944Z,100.00
2024-01-28T06:34:27.537Z,100.00
2024-01-28T06:36:55.109Z,100.00
2024-01-28T06:39:22.818Z,100.00
2024-01-28T06:41:51.417Z,100.00
2024-01-28T06:44:19.058Z,100.00
2024-01-28T06:46:46.635Z,100.00
2024-01-28T06:49:17.751Z,100.00
2024-01-28T06:51:47.426Z,100.00
2024-01-28T06:54:15.220Z,100.00
2024-01-28T06:56:42.868Z,100.00
2024-01-28T06:59:10.586Z,100.00
2024-01-28T07:01:38.223Z,100.00
2024-01-28T07:04:05.885Z,100.00
2024-01-28T07:06:33.740Z,100.00
2024-01-28T07:09:01.486Z,100.00
2024-01-28T07:11:29.102Z,100.00
2024-01-28T07:13:56.625Z,100.00
2024-01-28T07:16:24.276Z,100.00
2024-01-28T07:18:53.587Z,100.00
2024-01-28T07:21:21.341Z,100.00
2024-01-28T07:23:49.018Z,100.00
2024-01-28T07:26:16.541Z,100.00
2024-01-28T07:28:44.380Z,100.00
2024-01-28T07:31:11.936Z,100.00
2024-01-28T07:33:39.748Z,100.00
2024-01-28T07:36:08.254Z,100.00
2024-01-28T07:38:35.886Z,100.00
2024-01-28T07:41:04.183Z,100.00
2024-01-28T07:43:32.016Z,100.00
2024-01-28T07:45:59.801Z,100.00
2024-01-28T07:48:27.569Z,100.00
2024-01-28T07:50:56.294Z,100.00
2024-01-28T07:53:23.851Z,100.00
2024-01-28T07:55:51.675Z,100.00
2024-01-28T07:58:19.234Z,100.00
2024-01-28T08:00:47.138Z,100.00
2024-01-28T08:03:14.754Z,100.00
2024-01-28T08:05:42.786Z,100.00
2024-01-28T08:08:12.646Z,100.00
2024-01-28T08:10:42.088Z,100.00
2024-01-28T08:13:09.670Z,100.00
2024-01-28T08:15:37.754Z,100.00
2024-01-28T08:18:05.606Z,100.00
2024-01-28T08:20:33.170Z,100.00
2024-01-28T08:23:00.790Z,100.00
2024-01-28T08:25:28.397Z,100.00
2024-01-28T08:27:56.029Z,100.00
2024-01-28T08:30:24.634Z,100.00
2024-01-28T08:32:52.310Z,100.00
2024-01-28T08:35:20.180Z,100.00
2024-01-28T08:37:47.760Z,100.00
2024-01-28T08:40:15.863Z,100.00
2024-01-28T08:42:43.494Z,100.00
2024-01-28T08:45:11.118Z,100.00
2024-01-28T08:47:38.737Z,100.00
2024-01-28T08:50:06.587Z,100.00
2024-01-28T08:52:34.128Z,100.00
2024-01-28T08:55:01.731Z,100.00
2024-01-28T08:57:29.419Z,100.00
2024-01-28T08:59:57.010Z,100.00
2024-01-28T09:02:25.142Z,100.00
2024-01-28T09:04:53.109Z,100.00
2024-01-28T09:07:20.916Z,100.00
2024-01-28T09:09:48.627Z,100.00
2024-01-28T09:12:16.401Z,100.00
2024-01-28T09:14:44.005Z,100.00
2024-01-28T09:17:11.816Z,95.87
2024-01-28T09:19:39.446Z,100.00
2024-01-28T09:22:07.131Z,98.41
2024-01-28T09:24:34.898Z,92.56
2024-01-28T09:27:03.079Z,100.00
2024-01-28T09:29:31.702Z,97.97
2024-01-28T09:32:00.530Z,96.64
2024-01-28T09:34:29.842Z,88.32
2024-01-28T09:36:57.503Z,91.76
2024-01-28T09:39:25.284Z,85.79
2024-01-28T09:41:55.563Z,94.16
2024-01-28T09:44:23.120Z,86.92
2024-01-28T09:46:51.635Z,85.33
2024-01-28T09:49:20.685Z,86.09
2024-01-28T09:51:48.424Z,80.75
2024-01-28T09:54:16.146Z,79.39
2024-01-28T09:56:44.597Z,88.59
2024-01-28T09:59:14.107Z,79.87
2024-01-28T10:01:44.144Z,78.11
2024-01-28T10:04:12.159Z,86.19
2024-01-28T10:06:39.921Z,75.38
2024-01-28T10:09:07.509Z,80.25
2024-01-28T10:11:35.220Z,79.08
2024-01-28T10:14:02.826Z,74.35
2024-01-28T10:16:36.180Z,73.18
2024-01-28T10:19:04.555Z,78.03
2024-01-28T10:21:32.952Z,71.97
2024-01-28T10:24:00.806Z,78.53
2024-01-28T10:26:28.346Z,72.98
2024-01-28T10:28:56.052Z,72.03
2024-01-28T10:31:24.197Z,77.98
2024-01-28T10:33:51.926Z,71.02
2024-01-28T10:36:19.640Z,70.37
2024-01-28T10:38:47.676Z,70.41
2024-01-28T10:41:18.863Z,71.29
2024-01-28T10:44:12.891Z,69.02
2024-01-28T10:46:41.171Z,71.35
2024-01-28T10:49:09.591Z,76.82
2024-01-28T10:51:39.185Z,69.87
2024-01-28T10:54:09.141Z,70.80
2024-01-28T10:56:40.608Z,69.64
2024-01-28T10:59:08.805Z,77.05
2024-01-28T11:01:37.195Z,70.46
2024-01-28T11:04:06.142Z,70.83
2024-01-28T11:06:34.566Z,71.39
2024-01-28T11:09:04.749Z,71.63
2024-01-28T11:11:32.317Z,70.21
2024-01-28T11:14:05.961Z,75.92
2024-01-28T11:16:33.512Z,69.07
2024-01-28T11:19:07.479Z,67.98
2024-01-28T11:21:35.604Z,67.63
2024-01-28T11:24:07.494Z,69.21
2024-01-28T11:26:45.366Z,66.96
2024-01-28T11:29:13.441Z,73.59
2024-01-28T11:31:41.972Z,64.97
2024-01-28T11:34:23.087Z,65.65
2024-01-28T11:36:55.391Z,67.85
2024-01-28T11:39:44.036Z,68.26
2024-01-28T11:42:11.818Z,65.16
2024-01-28T11:44:42.278Z,66.08
2024-01-28T11:47:14.737Z,67.51
2024-01-28T11:49:45.912Z,65.40
2024-01-28T11:52:13.704Z,65.42
2024-01-28T11:54:45.028Z,64.28
2024-01-28T11:57:12.852Z,66.63
2024-01-28T11:59:40.687Z,68.30
2024-01-28T12:02:09.725Z,65.96
2024-01-28T12:04:40.323Z,65.75
2024-01-28T12:07:09.264Z,66.67
2024-01-28T12:09:38.696Z,66.65
2024-01-28T12:12:07.909Z,69.36
2024-01-28T12:14:35.635Z,64.73
2024-01-28T12:17:03.277Z,64.40
2024-01-28T12:19:30.926Z,65.54
2024-01-28T12:21:59.767Z,63.16
2024-01-28T12:24:28.137Z,61.81
2024-01-28T12:26:56.814Z,62.93
2024-01-28T12:29:24.616Z,61.13
2024-01-28T12:31:52.493Z,67.98
2024-01-28T12:34:20.490Z,66.36
2024-01-28T12:36:48.370Z,73.62
2024-01-28T12:39:16.327Z,72.21
2024-01-28T12:41:44.083Z,64.53
2024-01-28T12:44:11.589Z,66.52
2024-01-28T12:46:39.259Z,65.50
2024-01-28T12:49:10.291Z,65.46
2024-01-28T12:51:40.133Z,69.28
2024-01-28T12:54:09.566Z,65.08
2024-01-28T12:56:37.376Z,65.55
2024-01-28T12:59:05.228Z,68.42
2024-01-28T13:01:33.191Z,65.88
2024-01-28T13:04:01.094Z,65.50
2024-01-28T13:06:29.024Z,65.89
2024-01-28T13:08:57.695Z,67.00
2024-01-28T13:11:27.929Z,67.89
2024-01-28T13:13:55.718Z,68.16
2024-01-28T13:16:24.958Z,66.64
2024-01-28T13:18:53.062Z,77.00
2024-01-28T13:21:20.866Z,66.93
2024-01-28T13:23:48.496Z,67.80
2024-01-28T13:26:20.223Z,69.94
2024-01-28T13:28:47.960Z,67.56
2024-01-28T13:31:15.673Z,67.87
2024-01-28T13:33:43.446Z,67.96
2024-01-28T13:36:12.625Z,69.50
2024-01-28T13:38:41.085Z,68.30
2024-01-28T13:41:08.900Z,69.97
2024-01-28T13:43:37.908Z,71.40
2024-01-28T13:46:05.641Z,72.08
2024-01-28T13:48:33.418Z,70.42
2024-01-28T13:51:01.051Z,70.12
2024-01-28T13:53:28.628Z,73.86
2024-01-28T13:55:56.282Z,71.62
2024-01-28T13:58:23.902Z,69.22
2024-01-28T14:00:51.464Z,72.81
2024-01-28T14:03:19.065Z,70.79
2024-01-28T14:05:46.687Z,76.26
2024-01-28T14:08:14.732Z,69.04
2024-01-28T14:10:42.759Z,72.05
2024-01-28T14:13:11.440Z,71.11
2024-01-28T14:15:39.887Z,69.70
2024-01-28T14:18:08.977Z,72.87
2024-01-28T14:20:36.847Z,70.87
2024-01-28T14:23:04.749Z,73.18
2024-01-28T14:25:32.476Z,72.38
2024-01-28T14:28:00.556Z,70.77
2024-01-28T14:30:28.422Z,79.42
2024-01-28T14:32:56.254Z,71.55
2024-01-28T14:35:24.006Z,70.91
2024-01-28T14:37:51.967Z,71.19
2024-01-28T14:40:19.808Z,70.25
2024-01-28T14:42:47.780Z,74.89
2024-01-28T14:45:15.908Z,72.49
2024-01-28T14:47:44.627Z,76.10
2024-01-28T14:50:12.533Z,72.21
2024-01-28T14:52:40.221Z,70.88
2024-01-28T14:55:08.406Z,70.94
2024-01-28T14:57:36.658Z,70.82
2024-01-28T15:00:05.904Z,72.28
2024-01-28T15:02:34.079Z,73.52
2024-01-28T15:05:06.278Z,75.57
2024-01-28T15:07:34.137Z,72.74
2024-01-28T15:10:02.465Z,71.98
2024-01-28T15:12:30.361Z,73.79
2024-01-28T15:14:58.007Z,74.28
2024-01-28T15:17:28.931Z,72.61
2024-01-28T15:19:56.986Z,76.60
2024-01-28T15:22:27.537Z,73.98
2024-01-28T15:24:58.768Z,74.22
2024-01-28T15:27:27.829Z,78.30
2024-01-28T15:29:55.706Z,75.88
2024-01-28T15:32:23.440Z,77.21
2024-01-28T15:34:52.164Z,76.43
2024-01-28T15:37:19.981Z,76.64
2024-01-28T15:39:47.782Z,76.90
2024-01-28T15:42:15.569Z,77.69
2024-01-28T15:44:43.364Z,77.92
2024-01-28T15:47:11.372Z,77.89
2024-01-28T15:49:39.233Z,79.06
2024-01-28T15:52:07.049Z,78.55
2024-01-28T15:54:34.838Z,78.95
2024-01-28T15:57:02.566Z,79.88
2024-01-28T15:59:30.282Z,79.75
2024-01-28T16:01:58.054Z,85.21
2024-01-28T16:04:25.855Z,80.04
2024-01-28T16:06:53.531Z,79.99
2024-01-28T16:09:21.234Z,80.28
2024-01-28T16:11:48.835Z,81.13
2024-01-28T16:14:16.421Z,80.32
2024-01-28T16:16:44.221Z,80.57
2024-01-28T16:19:14.639Z,80.79
2024-01-28T16:21:42.693Z,80.52
2024-01-28T16:24:10.370Z,80.09
2024-01-28T16:26:37.887Z,80.14
2024-01-28T16:29:05.494Z,81.35
2024-01-28T16:31:33.261Z,81.01
2024-01-28T16:34:01.025Z,80.74
2024-01-28T16:36:28.698Z,81.30
2024-01-28T16:38:56.435Z,81.79
2024-01-28T16:41:25.768Z,82.24
2024-01-28T16:43:53.457Z,81.97
2024-01-28T16:46:21.127Z,81.84
2024-01-28T16:48:49.069Z,81.89
2024-01-28T16:51:16.937Z,82.04
2024-01-28T16:53:44.705Z,83.47
2024-01-28T16:56:12.515Z,82.41
2024-01-28T16:58:41.226Z,82.92
2024-01-28T17:01:10.644Z,82.89
2024-01-28T17:03:38.641Z,87.01
2024-01-28T17:06:06.950Z,83.84
2024-01-28T17:08:34.799Z,83.80
2024-01-28T17:11:02.544Z,83.31
2024-01-28T17:13:34.552Z,83.99
2024-01-28T17:16:04.519Z,83.37
2024-01-28T17:18:35.780Z,83.56
2024-01-28T17:21:03.665Z,83.56
2024-01-28T17:23:31.359Z,82.89
2024-01-28T17:25:59.252Z,83.57
2024-01-28T17:28:27.110Z,83.11
2024-01-28T17:30:56.572Z,83.10
2024-01-28T17:33:24.514Z,82.78
2024-01-28T17:35:52.502Z,83.20
2024-01-28T17:38:20.658Z,83.08
2024-01-28T17:40:48.998Z,83.76
2024-01-28T17:43:16.830Z,83.15
2024-01-28T17:45:45.515Z,83.93
2024-01-28T17:48:13.387Z,83.56
2024-01-28T17:50:43.434Z,83.17
2024-01-28T17:53:11.744Z,85.07
2024-01-28T17:55:39.846Z,84.38
2024-01-28T17:58:07.511Z,84.82
2024-01-28T18:00:35.265Z,85.01
2024-01-28T18:03:03.443Z,84.24
2024-01-28T18:05:32.206Z,84.82
2024-01-28T18:08:00.058Z,84.21
2024-01-28T18:10:27.860Z,84.50
2024-01-28T18:12:55.691Z,84.79
2024-01-28T18:15:23.529Z,84.98
2024-01-28T18:17:52.987Z,84.69
2024-01-28T18:20:20.910Z,84.42
2024-01-28T18:22:50.080Z,84.71
2024-01-28T18:25:17.838Z,84.24
2024-01-28T18:27:45.738Z,85.06
2024-01-28T18:30:14.055Z,85.19
2024-01-28T18:32:41.868Z,85.07
2024-01-28T18:35:09.917Z,85.47
2024-01-28T18:37:37.673Z,85.38
2024-01-28T18:40:06.150Z,85.38
2024-01-28T18:42:34.843Z,85.27
2024-01-28T18:45:03.639Z,85.94
2024-01-28T18:47:31.618Z,86.30
2024-01-28T18:49:59.632Z,85.32
2024-01-28T18:52:27.751Z,84.94
2024-01-28T18:54:55.739Z,84.63
2024-01-28T18:57:23.648Z,84.81
2024-01-28T18:59:51.473Z,84.46
2024-01-28T19:02:21.701Z,84.42
2024-01-28T19:04:49.521Z,84.96
2024-01-28T19:07:17.332Z,83.61
2024-01-28T19:09:46.697Z,83.29
2024-01-28T19:12:14.649Z,84.41
2024-01-28T19:14:42.409Z,83.76
2024-01-28T19:17:10.104Z,87.45
2024-01-28T19:19:38.234Z,82.32
2024-01-28T19:22:05.987Z,85.44
2024-01-28T19:24:33.869Z,82.65
2024-01-28T19:27:01.668Z,84.10
2024-01-28T19:29:29.448Z,91.34
2024-01-28T19:31:59.715Z,80.47
2024-01-28T19:34:27.730Z,89.49
2024-01-28T19:36:55.756Z,79.62
2024-01-28T19:39:25.808Z,84.92
2024-01-28T19:41:53.742Z,80.98
2024-01-28T19:44:21.482Z,84.70
2024-01-28T19:46:49.163Z,83.70
2024-01-28T19:49:17.046Z,77.67
2024-01-28T19:51:44.864Z,81.19
2024-01-28T19:54:12.713Z,78.40
2024-01-28T19:56:40.307Z,80.15
2024-01-28T19:59:08.173Z,81.43
2024-01-28T20:01:36.247Z,78.64
2024-01-28T20:04:05.190Z,78.88
2024-01-28T20:06:37.427Z,78.54
2024-01-28T20:09:06.093Z,80.59
2024-01-28T20:11:35.074Z,78.55
2024-01-28T20:14:04.422Z,78.97
2024-01-28T20:16:32.194Z,80.76
2024-01-28T20:19:00.101Z,80.34
2024-01-28T20:21:28.531Z,86.92
2024-01-28T20:23:56.542Z,79.29
2024-01-28T20:26:24.212Z,81.25
2024-01-28T20:28:52.700Z,80.19
2024-01-28T20:31:26.274Z,81.01
2024-01-28T20:33:54.425Z,81.92
2024-01-28T20:36:23.755Z,82.55
2024-01-28T20:38:51.976Z,91.59
2024-01-28T20:41:21.524Z,90.71
2024-01-28T20:43:49.334Z,88.75
2024-01-28T20:46:17.150Z,83.33
2024-01-28T20:48:46.955Z,94.11
2024-01-28T20:51:14.783Z,82.57
2024-01-28T20:53:42.543Z,84.07
2024-01-28T20:56:11.981Z,82.79
2024-01-28T20:58:40.903Z,83.22
2024-01-28T21:01:09.326Z,82.73
2024-01-28T21:03:38.119Z,84.03
2024-01-28T21:06:05.944Z,83.16
2024-01-28T21:08:34.047Z,82.56
2024-01-28T21:11:11.450Z,80.82
2024-01-28T21:13:39.191Z,79.75
2024-01-28T21:16:07.467Z,89.31
2024-01-28T21:18:35.459Z,80.72
2024-01-28T21:21:03.299Z,86.80
2024-01-28T21:23:31.050Z,82.60
2024-01-28T21:25:58.713Z,80.58
2024-01-28T21:28:27.961Z,81.64
2024-01-28T21:30:56.106Z,88.04
2024-01-28T21:33:26.213Z,83.31
2024-01-28T21:35:54.089Z,82.64
2024-01-28T21:38:21.728Z,82.81
2024-01-28T21:40:49.321Z,82.61
2024-01-28T21:43:17.116Z,83.08
2024-01-28T21:45:45.068Z,82.41
2024-01-28T21:48:12.931Z,85.65
2024-01-28T21:50:40.656Z,83.07
2024-01-28T21:53:08.382Z,83.84
2024-01-28T21:55:36.162Z,83.40
2024-01-28T21:58:04.097Z,87.10
2024-01-28T22:00:33.720Z,88.45
2024-01-28T22:03:01.545Z,85.84
2024-01-28T22:05:29.256Z,93.55
2024-01-28T22:07:57.003Z,84.34
2024-01-28T22:10:24.568Z,86.74
2024-01-28T22:12:52.391Z,85.24
2024-01-28T22:15:20.281Z,86.61
2024-01-28T22:17:47.981Z,89.01
2024-01-28T22:20:15.774Z,86.00
2024-01-28T22:22:43.432Z,88.58
2024-01-28T22:25:11.387Z,87.88
2024-01-28T22:27:39.509Z,92.53
2024-01-28T22:30:08.400Z,100.00
2024-01-28T22:32:37.123Z,89.81
2024-01-28T22:35:05.783Z,88.91
2024-01-28T22:37:33.483Z,87.17
2024-01-28T22:40:01.136Z,94.40
2024-01-28T22:42:29.026Z,100.00
2024-01-28T22:44:56.628Z,87.70
2024-01-28T22:47:24.793Z,91.23
2024-01-28T22:49:52.466Z,94.95
2024-01-28T22:52:20.050Z,93.98
2024-01-28T22:54:47.696Z,89.41
2024-01-28T22:57:16.230Z,89.91
2024-01-28T22:59:44.105Z,89.06
2024-01-28T23:02:21.585Z,91.20
2024-01-28T23:04:49.143Z,94.23
2024-01-28T23:07:16.681Z,90.46
2024-01-28T23:09:44.366Z,98.91
2024-01-28T23:12:12.096Z,99.26
2024-01-28T23:14:39.697Z,92.83
2024-01-28T23:17:07.197Z,90.45
2024-01-28T23:19:35.231Z,90.44
2024-01-28T23:22:03.333Z,94.68
2024-01-28T23:24:31.507Z,91.24
2024-01-28T23:26:59.155Z,88.37
2024-01-28T23:29:27.494Z,89.51
2024-01-28T23:31:54.970Z,88.38
2024-01-28T23:34:22.698Z,87.37
2024-01-28T23:36:50.416Z,91.25
2024-01-28T23:39:18.094Z,95.10
2024-01-28T23:41:46.508Z,89.42
2024-01-28T23:44:17.488Z,98.05
2024-01-28T23:46:45.096Z,90.57
2024-01-28T23:49:14.517Z,93.54
2024-01-28T23:51:45.878Z,94.22
2024-01-28T23:54:13.831Z,87.76
2024-01-28T23:56:41.618Z,88.20
2024-01-28T23:59:09.602Z,89.58
